Rochester, IN

8:30 AM EDT on October 01, 2016 (GMT -0400)
Fulton County

Weather History for KRCR - January, 2014

Change the Weather History Date:

Friday, January 24, 2014

  Actual Average Record
Temperature  
Mean Temperature 10 °F -  
Max Temperature 23 °F 33 °F 42 °F (2015)
Min Temperature -4 °F 16 °F -4 °F (2014)
Degree Days  
Heating Degree Days 56    
Moisture  
Dew Point 1 °F    
Average Humidity 69    
Maximum Humidity 86    
Minimum Humidity 53    
Precipitation  
Precipitation 0.00 in - - ()
Sea Level Pressure  
Sea Level Pressure 30.15 in    
Wind  
Wind Speed 13 mph (SW)    
Max Wind Speed 28 mph    
Max Gust Speed 36 mph    
Visibility 8 miles    
Events Snow    
Averages and records for this station are not official NWS values.
T = Trace of Precipitation, MM = Missing Value Source: NWS Daily Summary

Daily Weather History Graph

Daily Weather History Graph

Search for Another Location

Airport or City:

Trip Planner

Search our weather history database for the weather conditions in past years. The results will help you decide how hot, cold, wet, or windy it might be!

Date:

Astronomy

Jan. 24, 2014 Rise Set
Actual Time 8:02 AM EST 5:51 PM EST
Civil Twilight 7:32 AM EST 6:21 PM EST
Nautical Twilight 6:59 AM EST 6:54 PM EST
Astronomical Twilight 6:26 AM EST 7:27 PM EST
Moon 1:28 AM EST (1/24) 12:10 PM EST (1/24)
Length of Visible Light 10h 48m
Length of Day
9h 49m
Last Quarter, 45% of the Moon is Illuminated
Jan 24
Last Quarter
Jan 30
New
Feb 6
First Quarter
Feb 14
Full
Feb 22
Last Quarter

Hourly Weather History & Observations

Time (EST) Temp. Windchill Dew Point Humidity Pressure Visibility Wind Dir Wind Speed Gust Speed Precip Events Conditions
12:15 AM -0.4 °F -15.7 °F -5.8 °F 78% 30.55 in 10.0 mi WSW 9.2 mph - N/A   Clear
12:35 AM -0.4 °F -15.7 °F -7.6 °F 72% 30.55 in 10.0 mi WSW 9.2 mph - N/A   Clear
12:55 AM -0.4 °F -13.4 °F -7.6 °F 72% 30.54 in 10.0 mi WSW 6.9 mph - N/A   Clear
1:15 AM -0.4 °F -15.7 °F -7.6 °F 72% 30.54 in 10.0 mi WSW 9.2 mph - N/A   Clear
1:35 AM -2.2 °F -15.6 °F -7.6 °F 78% 30.53 in 10.0 mi WSW 6.9 mph - N/A   Clear
1:55 AM -2.2 °F -16.8 °F -7.6 °F 78% 30.53 in 10.0 mi WSW 8.1 mph - N/A   Clear
2:15 AM -2.2 °F -18.0 °F -7.6 °F 78% 30.52 in 10.0 mi WSW 9.2 mph - N/A   Clear
2:35 AM -4.0 °F -19.0 °F -9.4 °F 78% 30.52 in 10.0 mi WSW 8.1 mph - N/A   Clear
2:55 AM -4.0 °F -20.2 °F -9.4 °F 78% 30.52 in 10.0 mi SW 9.2 mph - N/A   Clear
3:15 AM -4.0 °F -20.2 °F -9.4 °F 78% 30.52 in 10.0 mi SW 9.2 mph - N/A   Clear
3:35 AM -4.0 °F -17.8 °F -9.4 °F 78% 30.52 in 10.0 mi WSW 6.9 mph - N/A   Clear
3:55 AM -4.0 °F -20.2 °F -9.4 °F 78% 30.51 in 10.0 mi SW 9.2 mph - N/A   Clear
4:15 AM -4.0 °F -21.2 °F -9.4 °F 78% 30.51 in 10.0 mi SW 10.4 mph - N/A   Clear
4:35 AM -4.0 °F -20.2 °F -9.4 °F 78% 30.50 in 10.0 mi SW 9.2 mph - N/A   Clear
4:55 AM -4.0 °F -19.0 °F -9.4 °F 78% 30.49 in 10.0 mi SW 8.1 mph - N/A   Clear
5:15 AM -4.0 °F -20.2 °F -9.4 °F 78% 30.48 in 10.0 mi SW 9.2 mph - N/A   Clear
5:35 AM -4.0 °F -19.0 °F -9.4 °F 78% 30.47 in 10.0 mi SW 8.1 mph - N/A   Clear
5:55 AM -4.0 °F -20.2 °F -9.4 °F 78% 30.47 in 10.0 mi SW 9.2 mph - N/A   Clear
6:15 AM -4.0 °F -20.2 °F -9.4 °F 78% 30.46 in 10.0 mi SSW 9.2 mph - N/A   Clear
6:35 AM -4.0 °F -19.0 °F -9.4 °F 78% 30.45 in 10.0 mi SSW 8.1 mph - N/A   Clear
6:55 AM -4.0 °F -19.0 °F -9.4 °F 78% 30.44 in 10.0 mi SSW 8.1 mph - N/A   Clear
7:15 AM -4.0 °F -20.2 °F -9.4 °F 78% 30.42 in 10.0 mi SSW 9.2 mph - N/A   Clear
7:35 AM -2.2 °F -18.0 °F -9.4 °F 71% 30.42 in 10.0 mi SSW 9.2 mph - N/A   Clear
7:55 AM -2.2 °F -18.0 °F -7.6 °F 78% 30.40 in 10.0 mi SSW 9.2 mph - N/A   Clear
8:15 AM -0.4 °F -17.6 °F -7.6 °F 72% 30.39 in 10.0 mi SSW 11.5 mph - N/A   Clear
8:35 AM -0.4 °F -18.4 °F -7.6 °F 72% 30.38 in 10.0 mi SSW 12.7 mph 19.6 mph N/A   Clear
8:55 AM -0.4 °F -18.4 °F -7.6 °F 72% 30.36 in 10.0 mi SSW 12.7 mph 18.4 mph N/A   Clear
9:15 AM 1.4 °F -16.9 °F -5.8 °F 72% 30.35 in 10.0 mi SSW 13.8 mph 19.6 mph N/A   Clear
9:35 AM 3.2 °F -17.1 °F -5.8 °F 66% 30.33 in 7.0 mi SSW 18.4 mph 26.5 mph N/A   Clear
9:55 AM 3.2 °F -15.3 °F -5.8 °F 66% 30.32 in 10.0 mi SSW 15.0 mph 18.4 mph N/A   Clear
10:15 AM 5.0 °F -12.3 °F -4.0 °F 66% 30.32 in 10.0 mi SW 13.8 mph 19.6 mph N/A   Clear
10:35 AM 6.8 °F -11.3 °F -4.0 °F 61% 30.30 in 7.0 mi SSW 16.1 mph 23.0 mph N/A   Clear
10:55 AM 6.8 °F -9.3 °F -4.0 °F 61% 30.29 in 10.0 mi SW 12.7 mph 24.2 mph N/A   Clear
11:15 AM 8.6 °F -11.0 °F -2.2 °F 62% 30.27 in 7.0 mi SSW 20.7 mph 26.5 mph N/A   Clear
11:35 AM 8.6 °F -9.5 °F -0.4 °F 67% 30.25 in 7.0 mi SSW 17.3 mph 23.0 mph N/A   Clear
11:55 AM 10.4 °F -7.7 °F -0.4 °F 62% 30.22 in 7.0 mi SSW 18.4 mph 25.3 mph N/A   Clear
12:15 PM 12.2 °F -5.3 °F 1.4 °F 62% 30.19 in 5.0 mi SSW 18.4 mph 27.6 mph N/A   Haze
12:35 PM 12.2 °F -6.3 °F 1.4 °F 62% 30.16 in 3.0 mi SSW 20.7 mph 29.9 mph N/A   Haze
12:55 PM 14.0 °F -3.4 °F 1.4 °F 57% 30.13 in 5.0 mi SSW 19.6 mph 29.9 mph N/A   Haze
1:15 PM 14.0 °F -3.9 °F 3.2 °F 62% 30.11 in 5.0 mi SSW 20.7 mph 32.2 mph N/A   Haze
1:35 PM 14.0 °F -3.9 °F 3.2 °F 62% 30.08 in 7.0 mi SSW 20.7 mph 27.6 mph N/A   Clear
1:55 PM 15.8 °F -3.4 °F 3.2 °F 58% 30.04 in 4.0 mi SSW 26.5 mph 34.5 mph N/A   Haze
2:15 PM 15.8 °F -3.7 °F 3.2 °F 58% 30.00 in 3.0 mi SSW 27.6 mph 34.5 mph N/A   Haze
2:35 PM 17.6 °F 0.9 °F 3.2 °F 53% 29.98 in 4.0 mi SSW 20.7 mph 35.7 mph N/A   Haze
2:55 PM 17.6 °F 0.5 °F 5.0 °F 58% 29.96 in 5.0 mi SSW 21.9 mph 32.2 mph N/A   Haze
3:15 PM 17.6 °F -0.3 °F 3.2 °F 53% 29.96 in 4.0 mi SSW 24.2 mph 33.4 mph N/A   Haze
3:35 PM 19.4 °F 2.8 °F 5.0 °F 54% 29.92 in 7.0 mi SSW 21.9 mph 34.5 mph N/A   Clear
3:55 PM 19.4 °F 3.2 °F 5.0 °F 54% 29.90 in 5.0 mi SSW 20.7 mph 34.5 mph N/A   Haze
4:15 PM 19.4 °F 3.2 °F 5.0 °F 54% 29.89 in 5.0 mi SSW 20.7 mph 32.2 mph N/A   Haze
4:35 PM 19.4 °F 2.5 °F 6.8 °F 58% 29.89 in 5.0 mi SW 23.0 mph 33.4 mph N/A   Haze
4:55 PM 19.4 °F 2.8 °F 6.8 °F 58% 29.87 in 7.0 mi SSW 21.9 mph 31.1 mph N/A   Clear
5:15 PM 19.4 °F 4.1 °F 6.8 °F 58% 29.87 in 10.0 mi SSW 18.4 mph 26.5 mph N/A   Scattered Clouds
5:35 PM 21.2 °F 6.0 °F 6.8 °F 54% 29.86 in 10.0 mi SW 19.6 mph 27.6 mph N/A   Scattered Clouds
5:55 PM 21.2 °F 6.4 °F 6.8 °F 54% 29.86 in 10.0 mi SSW 18.4 mph 26.5 mph N/A   Scattered Clouds
6:15 PM 21.2 °F 6.4 °F 8.6 °F 58% 29.85 in 10.0 mi SW 18.4 mph 28.8 mph N/A   Scattered Clouds
6:35 PM 21.2 °F 6.4 °F 8.6 °F 58% 29.85 in 10.0 mi SW 18.4 mph 25.3 mph N/A   Scattered Clouds
6:55 PM 21.2 °F 7.3 °F 8.6 °F 58% 29.84 in 10.0 mi SSW 16.1 mph 23.0 mph N/A   Scattered Clouds
7:15 PM 21.2 °F 7.8 °F 8.6 °F 58% 29.83 in 10.0 mi SW 15.0 mph 25.3 mph N/A   Scattered Clouds
7:35 PM 23.0 °F 9.2 °F 10.4 °F 59% 29.82 in 10.0 mi SSW 17.3 mph 25.3 mph N/A   Scattered Clouds
7:55 PM 23.0 °F 8.3 °F 10.4 °F 59% 29.81 in 10.0 mi SW 19.6 mph 29.9 mph N/A   Scattered Clouds
8:15 PM 23.0 °F 8.0 °F 10.4 °F 59% 29.80 in 10.0 mi SW 20.7 mph 26.5 mph N/A   Mostly Cloudy
8:35 PM 23.0 °F 9.2 °F 10.4 °F 59% 29.79 in 10.0 mi SW 17.3 mph 23.0 mph N/A   Mostly Cloudy
8:55 PM 23.0 °F 8.7 °F 12.2 °F 63% 29.79 in 7.0 mi SW 18.4 mph 25.3 mph N/A Snow Light Snow
9:15 PM 23.0 °F 8.7 °F 14.0 °F 68% 29.77 in 2.0 mi SW 18.4 mph 28.8 mph N/A Snow Light Snow
9:35 PM 23.0 °F 8.0 °F 17.6 °F 80% 29.75 in 1.5 mi SW 20.7 mph 33.4 mph N/A Snow Light Snow
9:55 PM 23.0 °F 8.3 °F 19.4 °F 86% 29.71 in 1.2 mi SW 19.6 mph 28.8 mph N/A Snow Light Snow
10:15 PM 23.0 °F 7.6 °F 19.4 °F 86% 29.71 in 1.8 mi SW 21.9 mph 26.5 mph N/A Snow Light Snow
10:35 PM 23.0 °F 7.6 °F 19.4 °F 86% 29.69 in 1.5 mi SW 21.9 mph 27.6 mph N/A Snow Light Snow
10:55 PM 23.0 °F 8.7 °F 19.4 °F 86% 29.67 in 1.2 mi SW 18.4 mph 26.5 mph N/A Snow Light Snow
11:15 PM 23.0 °F 8.3 °F 19.4 °F 86% 29.65 in 2.0 mi SW 19.6 mph 31.1 mph N/A Snow Light Snow
11:35 PM 23.0 °F 9.2 °F 19.4 °F 86% 29.64 in 1.8 mi SW 17.3 mph 25.3 mph N/A Snow Light Snow
11:55 PM 23.0 °F 9.2 °F 19.4 °F 86% 29.63 in 2.5 mi SW 17.3 mph 28.8 mph N/A Snow Light Snow